createdAt,value
2017-10-29T00:00:04.901Z,970.26
2017-10-29T00:01:04.864Z,970.28
2017-10-29T00:02:04.819Z,970.25
2017-10-29T00:03:04.800Z,970.20
2017-10-29T00:04:04.746Z,970.16
2017-10-29T00:05:04.715Z,970.11
2017-10-29T00:06:04.661Z,970.15
2017-10-29T00:07:04.624Z,970.12
2017-10-29T00:08:04.601Z,970.04
2017-10-29T00:09:04.560Z,970.11
2017-10-29T00:10:04.493Z,970.02
2017-10-29T00:11:04.468Z,969.96
2017-10-29T00:12:04.463Z,969.94
2017-10-29T00:13:04.365Z,969.88
2017-10-29T00:14:04.326Z,969.82
2017-10-29T00:15:04.280Z,969.81
2017-10-29T00:16:04.277Z,969.78
2017-10-29T00:17:04.197Z,969.73
2017-10-29T00:18:04.163Z,969.72
2017-10-29T00:19:04.142Z,969.73
2017-10-29T00:20:04.094Z,969.68
2017-10-29T00:21:04.035Z,969.70
2017-10-29T00:22:04.003Z,969.71
2017-10-29T00:23:03.946Z,969.62
2017-10-29T00:24:03.906Z,969.62
2017-10-29T00:25:03.895Z,969.55
2017-10-29T00:26:03.835Z,969.51
2017-10-29T00:27:03.809Z,969.44
2017-10-29T00:28:03.737Z,969.43
2017-10-29T00:29:03.703Z,969.35
2017-10-29T00:30:03.665Z,969.35
2017-10-29T00:31:03.626Z,969.27
2017-10-29T00:32:03.578Z,969.23
2017-10-29T00:33:03.542Z,969.15
2017-10-29T00:34:03.494Z,969.10
2017-10-29T00:35:03.450Z,969.04
2017-10-29T00:36:03.435Z,969.09
2017-10-29T00:37:03.379Z,969.08
2017-10-29T00:38:03.324Z,969.01
2017-10-29T00:39:03.289Z,969.01
2017-10-29T00:40:03.248Z,968.95
2017-10-29T00:41:03.216Z,968.86
2017-10-29T00:42:03.188Z,968.88
2017-10-29T00:43:03.143Z,968.79
2017-10-29T00:44:03.087Z,968.85
2017-10-29T00:45:03.037Z,968.73
2017-10-29T00:46:03.005Z,968.62
2017-10-29T00:47:02.953Z,968.62
2017-10-29T00:48:02.921Z,968.64
2017-10-29T00:49:02.893Z,968.59
2017-10-29T00:50:02.827Z,968.59
2017-10-29T00:51:02.796Z,968.54
2017-10-29T00:52:02.748Z,968.56
2017-10-29T00:53:02.705Z,968.50
2017-10-29T00:54:02.687Z,968.42
2017-10-29T00:55:02.624Z,968.43
2017-10-29T00:56:02.590Z,968.37
2017-10-29T00:57:02.564Z,968.40
2017-10-29T00:58:02.504Z,968.34
2017-10-29T00:59:02.473Z,968.29
2017-10-29T01:00:02.417Z,968.29
2017-10-29T01:01:02.386Z,968.22
2017-10-29T01:02:02.331Z,968.20
2017-10-29T01:03:02.301Z,968.16
2017-10-29T01:04:02.266Z,968.17
2017-10-29T01:05:02.208Z,968.15
2017-10-29T01:06:02.167Z,968.05
2017-10-29T01:07:02.137Z,968.01
2017-10-29T01:08:02.107Z,967.96
2017-10-29T01:09:02.058Z,967.83
2017-10-29T01:10:02.007Z,967.90
2017-10-29T01:11:01.981Z,967.85
2017-10-29T01:12:01.942Z,967.79
2017-10-29T01:13:01.901Z,967.78
2017-10-29T01:14:01.837Z,967.84
2017-10-29T01:15:01.801Z,967.68
2017-10-29T01:16:01.767Z,967.78
2017-10-29T01:17:01.744Z,967.73
2017-10-29T01:18:01.686Z,967.71
2017-10-29T01:19:01.650Z,967.62
2017-10-29T01:20:01.598Z,967.46
2017-10-29T01:21:01.557Z,967.50
2017-10-29T01:22:01.519Z,967.52
2017-10-29T01:23:01.480Z,967.52
2017-10-29T01:24:01.439Z,967.51
2017-10-29T01:25:01.380Z,967.40
2017-10-29T01:26:01.351Z,967.37
2017-10-29T01:27:01.309Z,967.41
2017-10-29T01:28:01.271Z,967.36
2017-10-29T01:29:01.232Z,967.34
2017-10-29T01:30:01.178Z,967.23
2017-10-29T01:31:01.143Z,967.25
2017-10-29T01:32:01.106Z,967.28
2017-10-29T01:33:01.079Z,967.08
2017-10-29T01:34:01.017Z,967.20
2017-10-29T01:35:01.003Z,967.08
2017-10-29T01:36:00.942Z,967.03
2017-10-29T01:37:00.894Z,967.07
2017-10-29T01:38:00.862Z,966.98
2017-10-29T01:39:00.819Z,967.03
2017-10-29T01:40:00.784Z,966.97
2017-10-29T01:41:00.738Z,966.88
2017-10-29T01:42:00.678Z,966.90
2017-10-29T01:43:00.669Z,966.92
2017-10-29T01:44:00.658Z,966.82
2017-10-29T01:45:00.581Z,966.80
2017-10-29T01:46:00.556Z,966.78
2017-10-29T01:47:00.480Z,966.80
2017-10-29T01:48:00.478Z,966.73
2017-10-29T01:49:00.405Z,966.72
2017-10-29T01:50:00.358Z,966.51
2017-10-29T01:51:00.322Z,966.64
2017-10-29T01:52:00.283Z,966.51
2017-10-29T01:53:00.236Z,966.53
2017-10-29T01:54:00.196Z,966.39
2017-10-29T01:55:00.152Z,966.45
2017-10-29T01:56:00.120Z,966.36
2017-10-29T01:57:00.082Z,966.36
2017-10-29T01:58:00.043Z,966.35
2017-10-29T01:59:00.000Z,966.29
2017-10-29T01:59:59.966Z,966.28
2017-10-29T02:00:59.919Z,966.20
2017-10-29T02:01:59.873Z,966.18
2017-10-29T02:02:59.850Z,966.15
2017-10-29T02:03:59.794Z,966.04
2017-10-29T02:04:59.748Z,966.02
2017-10-29T02:05:59.728Z,965.93
2017-10-29T02:06:59.661Z,965.89
2017-10-29T02:07:59.628Z,965.87
2017-10-29T02:08:59.590Z,965.87
2017-10-29T02:09:59.558Z,965.85
2017-10-29T02:10:59.510Z,965.84
2017-10-29T02:11:59.477Z,965.69
2017-10-29T02:12:59.421Z,965.74
2017-10-29T02:13:59.376Z,965.68
2017-10-29T02:14:59.337Z,965.56
2017-10-29T02:15:59.341Z,965.60
2017-10-29T02:16:59.263Z,965.59
2017-10-29T02:17:59.223Z,965.48
2017-10-29T02:18:59.171Z,965.50
2017-10-29T02:19:59.141Z,965.48
2017-10-29T02:20:59.095Z,965.45
2017-10-29T02:21:59.057Z,965.42
2017-10-29T02:22:59.018Z,965.35
2017-10-29T02:23:58.975Z,965.27
2017-10-29T02:24:58.946Z,965.33
2017-10-29T02:25:58.896Z,965.33
2017-10-29T02:26:58.852Z,965.28
2017-10-29T02:27:58.816Z,965.22
2017-10-29T02:28:58.778Z,965.23
2017-10-29T02:29:58.759Z,965.13
2017-10-29T02:30:58.694Z,965.16
2017-10-29T02:31:58.643Z,965.13
2017-10-29T02:32:58.610Z,965.06
2017-10-29T02:33:58.565Z,965.08
2017-10-29T02:34:58.561Z,965.12
2017-10-29T02:35:58.539Z,965.15
2017-10-29T02:36:58.482Z,964.91
2017-10-29T02:37:58.449Z,965.03
2017-10-29T02:38:58.370Z,964.85
2017-10-29T02:39:58.338Z,964.87
2017-10-29T02:40:58.277Z,964.87
2017-10-29T02:41:58.250Z,964.76
2017-10-29T02:42:58.198Z,964.81
2017-10-29T02:43:58.156Z,964.70
2017-10-29T02:44:58.130Z,964.62
2017-10-29T02:45:58.092Z,964.51
2017-10-29T02:46:58.040Z,964.47
2017-10-29T02:47:57.997Z,964.48
2017-10-29T02:48:57.954Z,964.45
2017-10-29T02:49:57.920Z,964.39
2017-10-29T02:50:57.889Z,964.34
2017-10-29T02:51:57.828Z,964.29
2017-10-29T02:52:57.807Z,964.22
2017-10-29T02:53:57.754Z,964.06
2017-10-29T02:54:57.727Z,964.15
2017-10-29T02:55:57.668Z,963.99
2017-10-29T02:56:57.642Z,963.94
2017-10-29T02:57:57.593Z,963.97
2017-10-29T02:58:57.554Z,963.88
2017-10-29T02:59:58.407Z,963.92
2017-10-29T03:00:57.498Z,963.82
2017-10-29T03:01:57.449Z,963.72
2017-10-29T03:02:57.420Z,963.77
2017-10-29T03:03:57.342Z,963.69
2017-10-29T03:04:57.328Z,963.69
2017-10-29T03:05:57.274Z,963.60
2017-10-29T03:06:57.229Z,963.59
2017-10-29T03:07:57.191Z,963.52
2017-10-29T03:08:57.145Z,963.48
2017-10-29T03:09:57.105Z,963.43
2017-10-29T03:10:57.081Z,963.40
2017-10-29T03:11:57.045Z,963.35
2017-10-29T03:12:56.982Z,963.33
2017-10-29T03:13:56.939Z,963.28
2017-10-29T03:14:56.926Z,963.25
2017-10-29T03:15:56.861Z,963.28
2017-10-29T03:16:56.830Z,963.18
2017-10-29T03:17:56.786Z,963.11
2017-10-29T03:18:56.737Z,963.14
2017-10-29T03:19:56.712Z,963.19
2017-10-29T03:20:56.765Z,963.11
2017-10-29T03:21:56.619Z,963.17
2017-10-29T03:22:56.587Z,963.19
2017-10-29T03:23:56.578Z,963.11
2017-10-29T03:24:56.508Z,963.13
2017-10-29T03:25:56.501Z,963.05
2017-10-29T03:26:56.420Z,963.08
2017-10-29T03:27:56.417Z,963.06
2017-10-29T03:28:56.334Z,963.02
2017-10-29T03:29:56.300Z,963.08
2017-10-29T03:30:56.261Z,963.02
2017-10-29T03:31:56.225Z,963.03
2017-10-29T03:32:56.200Z,963.06
2017-10-29T03:33:56.141Z,962.94
2017-10-29T03:34:56.109Z,962.95
2017-10-29T03:35:56.060Z,962.86
2017-10-29T03:36:56.020Z,962.85
2017-10-29T03:37:55.972Z,962.87
2017-10-29T03:38:55.939Z,962.68
2017-10-29T03:39:55.894Z,962.64
2017-10-29T03:40:55.873Z,962.50
2017-10-29T03:41:55.813Z,962.63
2017-10-29T03:42:55.766Z,962.65
2017-10-29T03:43:55.735Z,962.54
2017-10-29T03:44:55.693Z,962.50
2017-10-29T03:45:55.647Z,962.51
2017-10-29T03:46:55.635Z,962.50
2017-10-29T03:47:55.573Z,962.47
2017-10-29T03:48:55.554Z,962.47
2017-10-29T03:49:55.502Z,962.41
2017-10-29T03:50:55.452Z,962.40
2017-10-29T03:51:55.402Z,962.33
2017-10-29T03:52:55.379Z,962.27
2017-10-29T03:53:55.337Z,962.29
2017-10-29T03:54:55.286Z,962.13
2017-10-29T03:55:55.241Z,962.22
2017-10-29T03:56:55.225Z,962.23
2017-10-29T03:57:55.173Z,962.28
2017-10-29T03:58:55.124Z,962.19
2017-10-29T03:59:55.082Z,962.26
2017-10-29T04:00:55.064Z,962.07
2017-10-29T04:01:55.023Z,962.23
2017-10-29T04:02:54.973Z,962.12
2017-10-29T04:03:54.933Z,962.13
2017-10-29T04:04:54.893Z,962.14
2017-10-29T04:05:54.846Z,962.17
2017-10-29T04:06:54.808Z,962.10
2017-10-29T04:07:54.765Z,962.10
2017-10-29T04:08:54.726Z,962.14
2017-10-29T04:09:54.695Z,962.00
2017-10-29T04:10:54.692Z,962.09
2017-10-29T04:11:54.668Z,962.20
2017-10-29T04:12:54.577Z,962.22
2017-10-29T04:13:54.549Z,962.25
2017-10-29T04:14:54.519Z,962.41
2017-10-29T04:15:54.449Z,962.53
2017-10-29T04:16:54.412Z,962.42
2017-10-29T04:17:54.390Z,962.56
2017-10-29T04:18:54.343Z,962.53
2017-10-29T04:19:54.310Z,962.52
2017-10-29T04:20:54.262Z,962.48
2017-10-29T04:21:54.223Z,962.41
2017-10-29T04:22:54.160Z,962.36
2017-10-29T04:23:54.143Z,962.41
2017-10-29T04:24:54.069Z,962.32
2017-10-29T04:25:54.053Z,962.47
2017-10-29T04:26:54.043Z,962.52
2017-10-29T04:27:53.958Z,962.38
2017-10-29T04:28:53.920Z,962.45
2017-10-29T04:29:53.887Z,962.65
2017-10-29T04:30:53.835Z,962.72
2017-10-29T04:31:53.800Z,962.90
2017-10-29T04:32:53.796Z,962.73
2017-10-29T04:33:53.714Z,962.78
2017-10-29T04:34:53.663Z,962.68
2017-10-29T04:35:53.648Z,962.67
2017-10-29T04:36:53.601Z,962.69
2017-10-29T04:37:53.556Z,962.61
2017-10-29T04:38:53.556Z,962.53
2017-10-29T04:39:53.477Z,962.69
2017-10-29T04:40:53.433Z,962.49
2017-10-29T04:41:53.416Z,962.69
2017-10-29T04:42:53.372Z,962.64
2017-10-29T04:43:53.310Z,962.38
2017-10-29T04:44:53.291Z,962.54
2017-10-29T04:45:53.229Z,962.44
2017-10-29T04:46:53.203Z,962.45
2017-10-29T04:47:53.145Z,962.51
2017-10-29T04:48:53.109Z,962.40
2017-10-29T04:49:53.076Z,962.62
2017-10-29T04:50:53.030Z,962.52
2017-10-29T04:51:52.985Z,962.52
2017-10-29T04:52:52.942Z,962.45
2017-10-29T04:53:52.925Z,962.64
2017-10-29T04:54:52.873Z,962.64
2017-10-29T04:55:52.828Z,962.59
2017-10-29T04:56:52.785Z,962.66
2017-10-29T04:57:52.759Z,962.76
2017-10-29T04:58:52.718Z,962.88
2017-10-29T04:59:52.694Z,962.90
2017-10-29T05:00:52.735Z,962.69
2017-10-29T05:02:07.565Z,962.81
2017-10-29T05:02:55.109Z,962.81
2017-10-29T05:03:52.700Z,962.89
2017-10-29T05:04:52.511Z,963.18
2017-10-29T05:05:52.422Z,963.07
2017-10-29T05:06:52.376Z,962.91
2017-10-29T05:07:52.349Z,963.08
2017-10-29T05:08:52.319Z,963.04
2017-10-29T05:09:52.259Z,963.05
2017-10-29T05:10:52.232Z,962.82
2017-10-29T05:11:52.210Z,962.61
2017-10-29T05:12:52.152Z,962.95
2017-10-29T05:13:52.100Z,963.20
2017-10-29T05:14:52.052Z,963.06
2017-10-29T05:15:52.044Z,963.32
2017-10-29T05:16:51.981Z,967.95
